Time;durP1;ratioP1;P1;durP2;ratioP2;P2;SDS_P1;SDS_P2;PMS_P1;PMS_P2;Temp;Humidity;BMP_temperature;BMP_pressure;BME280_temperature;BME280_humidity;BME280_pressure;Samples;Min_cycle;Max_cycle;Signal;HPM_P1;HPM_P2
2022/06/21 00:01:57;;;;;;;3.60;3.37;;;;;;;23.92;40.52;94734.09;6152185;28;105372;-54
2022/06/21 00:05:01;;;;;;;3.53;3.33;;;;;;;23.89;40.82;94725.63;6135370;28;103815;-54
2022/06/21 00:08:08;;;;;;;3.07;2.87;;;;;;;23.81;40.66;94723.78;6161525;28;103569;-54
2022/06/21 00:11:19;;;;;;;3.00;2.70;;;;;;;23.74;40.99;94720.84;6159114;28;103562;-54
2022/06/21 00:14:22;;;;;;;3.13;2.90;;;;;;;23.76;41.16;94721.31;6147170;28;104616;-54
2022/06/21 00:17:25;;;;;;;3.30;3.10;;;;;;;23.77;40.98;94716.75;6146027;28;104716;-55
2022/06/21 00:20:29;;;;;;;3.20;3.00;;;;;;;23.71;41.21;94713.47;6150500;28;103884;-54
2022/06/21 00:23:33;;;;;;;2.87;2.70;;;;;;;23.72;41.13;94717.72;6157682;28;104566;-54
2022/06/21 00:26:37;;;;;;;3.20;3.00;;;;;;;23.68;40.78;94719.44;6148593;28;104885;-54
2022/06/21 00:29:40;;;;;;;3.27;3.07;;;;;;;23.69;40.81;94725.56;6155395;28;103898;-54
2022/06/21 00:32:45;;;;;;;3.17;2.97;;;;;;;23.68;40.68;94716.78;6159030;28;103792;-55
2022/06/21 00:35:50;;;;;;;2.70;2.53;;;;;;;23.60;40.69;94712.28;6155618;28;103650;-54
2022/06/21 00:38:57;;;;;;;3.00;2.80;;;;;;;23.61;40.92;94708.50;6126486;28;103745;-54
2022/06/21 00:42:12;;;;;;;2.90;2.70;;;;;;;23.58;40.88;94704.59;6156403;28;103765;-53
2022/06/21 00:45:24;;;;;;;2.97;2.80;;;;;;;23.66;40.99;94705.63;6158093;28;103763;-54
2022/06/21 00:48:32;;;;;;;3.30;2.97;;;;;;;23.69;40.88;94705.00;6142843;28;103817;-54
2022/06/21 00:51:40;;;;;;;3.17;2.60;;;;;;;23.69;40.33;94705.00;6139705;28;103877;-54
2022/06/21 00:54:51;;;;;;;4.03;3.10;;;;;;;23.69;40.91;94710.34;6158130;28;103617;-54
2022/06/21 00:57:56;;;;;;;3.13;2.93;;;;;;;23.67;40.53;94715.22;6156563;28;103897;-54
2022/06/21 01:01:03;;;;;;;3.37;3.17;;;;;;;23.63;40.89;94714.31;6150888;28;104092;-54
2022/06/21 01:04:14;;;;;;;3.17;2.97;;;;;;;23.59;40.54;94716.06;6159363;28;104773;-54
2022/06/21 01:07:18;;;;;;;3.20;2.90;;;;;;;23.50;40.98;94721.44;6146851;28;103951;-54
2022/06/21 01:10:24;;;;;;;3.37;3.07;;;;;;;23.49;40.87;94719.09;6152271;28;103648;-53
2022/06/21 01:13:30;;;;;;;3.73;2.90;;;;;;;23.43;41.22;94712.38;6137043;28;103764;-54
2022/06/21 01:16:34;;;;;;;4.37;3.10;;;;;;;23.42;40.92;94713.47;6159825;28;103662;-54
2022/06/21 01:19:43;;;;;;;3.00;2.90;;;;;;;23.44;41.04;94712.06;6160501;28;104245;-54
2022/06/21 01:22:57;;;;;;;3.27;3.07;;;;;;;23.47;41.00;94707.94;6137519;28;103606;-54
2022/06/21 01:26:16;;;;;;;2.77;2.57;;;;;;;23.51;40.99;94720.31;6141242;28;104476;-58
2022/06/21 01:29:25;;;;;;;3.70;3.40;;;;;;;23.51;40.99;94717.66;6160209;28;104856;-57
2022/06/21 01:32:28;;;;;;;3.20;3.00;;;;;;;23.52;41.18;94711.25;6158410;28;104999;-57
2022/06/21 01:35:37;;;;;;;3.33;3.13;;;;;;;23.52;41.00;94721.94;6149570;28;103891;-58
2022/06/21 01:38:46;;;;;;;4.43;4.13;;;;;;;23.51;41.42;94715.00;6152298;28;103881;-55
2022/06/21 01:41:55;;;;;;;4.27;3.97;;;;;;;23.56;41.26;94722.06;6136017;28;103614;-55
2022/06/21 01:45:05;;;;;;;4.13;3.73;;;;;;;23.59;41.26;94734.75;6158870;28;103843;-54
2022/06/21 01:48:14;;;;;;;3.97;3.63;;;;;;;23.58;41.31;94723.28;6129475;28;104211;-55
2022/06/21 01:51:23;;;;;;;3.77;3.57;;;;;;;23.57;41.20;94726.28;6136005;28;104908;-55
2022/06/21 01:54:31;;;;;;;4.33;3.90;;;;;;;23.63;41.45;94722.31;6135151;28;103994;-54
2022/06/21 01:57:35;;;;;;;3.93;3.63;;;;;;;23.60;41.39;94725.63;6125395;28;104569;-55
2022/06/21 02:00:43;;;;;;;3.97;3.67;;;;;;;23.62;41.67;94715.41;6149740;28;104520;-55
2022/06/21 02:03:50;;;;;;;4.60;3.87;;;;;;;23.65;41.20;94720.09;6135396;28;103662;-54
2022/06/21 02:06:55;;;;;;;3.90;3.60;;;;;;;23.66;41.53;94724.34;6135457;28;104894;-56
2022/06/21 02:10:06;;;;;;;3.80;3.60;;;;;;;23.65;41.62;94720.09;6139536;28;103607;-54
2022/06/21 02:13:27;;;;;;;4.20;3.60;;;;;;;23.63;41.82;94721.53;6158010;28;103825;-54
2022/06/21 02:16:33;;;;;;;3.57;3.27;;;;;;;23.60;41.87;94728.31;6145375;28;103457;-54
2022/06/21 02:19:41;;;;;;;3.27;3.07;;;;;;;23.54;41.29;94714.38;6145591;28;103574;-54
2022/06/21 02:22:45;;;;;;;3.50;3.20;;;;;;;23.60;41.58;94717.63;6133467;28;104376;-62
2022/06/21 02:25:48;;;;;;;4.10;3.80;;;;;;;23.62;41.22;94714.63;6150090;28;104303;-54
2022/06/21 02:28:51;;;;;;;3.73;3.47;;;;;;;23.57;41.42;94712.94;6161713;28;104718;-55
2022/06/21 02:31:56;;;;;;;3.60;3.20;;;;;;;23.59;41.36;94711.50;6152975;28;104194;-54
2022/06/21 02:35:05;;;;;;;3.83;3.53;;;;;;;23.50;41.68;94699.28;6162215;28;104724;-55
2022/06/21 02:38:15;;;;;;;3.70;3.40;;;;;;;23.42;41.30;94708.13;6155770;28;104449;-54
2022/06/21 02:41:21;;;;;;;3.60;3.40;;;;;;;23.36;41.87;94704.09;6146301;28;103835;-55
2022/06/21 02:44:28;;;;;;;3.70;3.40;;;;;;;23.37;41.48;94703.78;6136608;28;104007;-54
2022/06/21 02:47:39;;;;;;;4.03;3.73;;;;;;;23.42;42.01;94708.91;6159866;28;103892;-54
2022/06/21 02:50:46;;;;;;;3.77;3.57;;;;;;;23.46;41.86;94709.06;6163030;28;103671;-54
2022/06/21 02:53:57;;;;;;;3.70;3.40;;;;;;;23.50;41.71;94704.63;6142715;28;103341;-55
2022/06/21 02:57:05;;;;;;;4.80;4.40;;;;;;;23.41;41.70;94698.56;6152901;28;104017;-55
2022/06/21 03:00:18;;;;;;;6.57;6.00;;;;;;;23.35;42.16;94705.19;6159270;28;103789;-55
2022/06/21 03:03:26;;;;;;;4.90;4.60;;;;;;;23.34;42.07;94700.94;6147191;28;103838;-55
2022/06/21 03:06:33;;;;;;;5.80;5.30;;;;;;;23.32;41.96;94700.47;6136204;28;103717;-55
2022/06/21 03:09:36;;;;;;;5.50;4.97;;;;;;;23.32;42.81;94695.13;6141684;28;104316;-55
2022/06/21 03:12:39;;;;;;;5.60;5.10;;;;;;;23.24;42.47;94694.84;6161304;28;104613;-55
2022/06/21 03:15:45;;;;;;;5.13;4.73;;;;;;;23.51;42.03;94696.28;6161552;28;103446;-53
2022/06/21 03:18:52;;;;;;;4.70;4.30;;;;;;;23.70;41.54;94703.13;6149926;28;103657;-54
2022/06/21 03:21:56;;;;;;;9.70;8.90;;;;;;;23.79;41.81;94699.28;6159198;28;103670;-54
2022/06/21 03:25:03;;;;;;;26.57;24.07;;;;;;;23.87;41.58;94701.13;6159938;28;103594;-53
2022/06/21 03:28:22;;;;;;;11.17;10.17;;;;;;;23.86;42.09;94693.44;6154128;28;103578;-54
2022/06/21 03:31:28;;;;;;;7.30;6.70;;;;;;;23.90;41.54;94684.44;6159795;28;105170;-59
2022/06/21 03:34:34;;;;;;;5.50;5.03;;;;;;;23.86;41.29;94694.22;6161574;28;104780;-54
2022/06/21 03:37:39;;;;;;;6.50;6.00;;;;;;;23.89;41.59;94692.78;6160881;28;104307;-55
2022/06/21 03:44:08;;;;;;;5.33;4.83;;;;;;;23.89;41.24;94701.56;6160905;28;105165;-54
2022/06/21 03:47:16;;;;;;;6.17;5.67;;;;;;;23.92;42.00;94702.03;6151322;28;103814;-54
2022/06/21 03:50:27;;;;;;;6.00;5.50;;;;;;;23.99;43.22;94705.72;6154107;28;103413;-52
2022/06/21 03:53:35;;;;;;;5.17;4.87;;;;;;;24.01;42.73;94708.88;6144211;28;103699;-53
2022/06/21 03:56:48;;;;;;;5.73;5.23;;;;;;;24.07;43.00;94714.84;6152598;28;103456;-52
2022/06/21 03:59:57;;;;;;;5.20;4.80;;;;;;;24.14;42.63;94718.53;6158061;28;103747;-52
2022/06/21 04:03:08;;;;;;;5.60;5.10;;;;;;;24.15;42.87;94719.31;6140272;28;104949;-54
2022/06/21 04:06:30;;;;;;;4.83;4.53;;;;;;;24.12;42.70;94715.41;6154508;28;103718;-55
2022/06/21 04:09:42;;;;;;;5.37;4.97;;;;;;;24.17;43.89;94715.22;6148742;28;103521;-53
2022/06/21 04:12:52;;;;;;;5.13;4.73;;;;;;;24.19;43.33;94713.03;6161121;28;105045;-54
2022/06/21 04:16:02;;;;;;;4.80;4.50;;;;;;;24.22;43.29;94711.56;6143558;28;103527;-53
2022/06/21 04:19:12;;;;;;;5.27;4.87;;;;;;;24.25;43.76;94696.78;6161751;28;103747;-54
2022/06/21 04:22:25;;;;;;;5.13;4.73;;;;;;;24.23;43.52;94697.09;6157588;28;103925;-54
2022/06/21 04:25:35;;;;;;;5.37;4.97;;;;;;;24.17;43.01;94703.75;6151092;28;103715;-53
2022/06/21 04:28:42;;;;;;;6.00;5.40;;;;;;;24.09;42.76;94704.59;6160550;28;104945;-54
2022/06/21 04:31:50;;;;;;;5.90;5.30;;;;;;;24.05;42.57;94707.16;6161081;28;103809;-54
2022/06/21 04:35:00;;;;;;;5.97;5.57;;;;;;;23.98;42.89;94696.16;6161239;28;104929;-55
2022/06/21 04:38:08;;;;;;;6.00;5.47;;;;;;;23.95;43.11;94688.78;6150228;28;103932;-54
2022/06/21 04:41:18;;;;;;;5.23;4.83;;;;;;;23.95;42.91;94685.34;6158910;28;104061;-53
2022/06/21 04:44:27;;;;;;;5.00;4.60;;;;;;;23.92;42.76;94676.09;6158891;28;105047;-54
2022/06/21 04:47:35;;;;;;;4.90;4.50;;;;;;;23.84;43.04;94677.69;6153764;28;103948;-53
2022/06/21 04:50:43;;;;;;;6.83;5.70;;;;;;;23.79;43.99;94685.13;6152932;28;104691;-60
2022/06/21 04:53:54;;;;;;;4.93;4.57;;;;;;;23.82;43.42;94693.28;6159017;28;103699;-53
2022/06/21 04:57:06;;;;;;;8.80;5.50;;;;;;;23.77;43.93;94684.69;6160702;28;103698;-53
2022/06/21 05:00:16;;;;;;;5.17;4.77;;;;;;;23.77;43.58;94696.16;6149986;28;104940;-53
2022/06/21 05:03:30;;;;;;;9.43;8.53;;;;;;;23.90;43.15;94697.00;6160356;28;103872;-52
2022/06/21 05:06:35;;;;;;;11.30;10.20;;;;;;;23.93;43.52;94703.59;6159769;28;103893;-54
2022/06/21 05:09:41;;;;;;;7.37;6.73;;;;;;;23.98;43.00;94708.72;6161010;28;103844;-53
2022/06/21 05:12:45;;;;;;;7.00;6.20;;;;;;;23.99;43.16;94705.72;6149552;28;104509;-53
2022/06/21 05:15:49;;;;;;;6.60;6.20;;;;;;;24.02;42.98;94720.34;6160791;28;103775;-53
2022/06/21 05:18:57;;;;;;;6.47;6.00;;;;;;;24.04;42.99;94720.84;6160500;28;103741;-53
2022/06/21 05:22:05;;;;;;;6.60;6.10;;;;;;;24.05;42.98;94725.09;6150232;28;104883;-53
2022/06/21 05:25:20;;;;;;;6.10;5.60;;;;;;;24.03;43.22;94724.63;6160395;28;104695;-53
2022/06/21 05:28:29;;;;;;;7.03;6.37;;;;;;;24.03;43.51;94729.97;6160372;28;103824;-53
2022/06/21 05:31:36;;;;;;;6.97;6.27;;;;;;;24.04;43.22;94726.97;6160019;28;103824;-53
2022/06/21 05:34:44;;;;;;;6.00;5.43;;;;;;;24.01;44.24;94721.47;6149680;28;104518;-54
2022/06/21 05:37:51;;;;;;;9.07;6.10;;;;;;;23.74;46.18;94728.09;6159342;28;103981;-54
2022/06/21 05:40:58;;;;;;;7.17;6.57;;;;;;;23.68;46.87;94722.13;6160094;28;104080;-79
2022/06/21 05:44:09;;;;;;;9.30;7.03;;;;;;;23.72;46.49;94719.59;6155431;28;103714;-54
2022/06/21 05:47:19;;;;;;;10.30;7.17;;;;;;;23.59;46.78;94716.06;6155075;28;104914;-53
2022/06/21 05:50:27;;;;;;;9.27;7.47;;;;;;;23.64;46.26;94723.09;6159826;28;103774;-53
2022/06/21 05:53:33;;;;;;;7.07;6.37;;;;;;;23.80;45.87;94718.75;6159976;28;103703;-53
2022/06/21 05:56:39;;;;;;;6.50;5.17;;;;;;;24.02;45.48;94718.47;6148934;28;103732;-53
2022/06/21 05:59:42;;;;;;;6.17;5.47;;;;;;;24.12;45.48;94711.97;6163714;28;103875;-53
2022/06/21 06:02:52;;;;;;;8.17;6.50;;;;;;;24.00;45.61;94717.22;6163398;28;103939;-53
2022/06/21 06:05:57;;;;;;;6.07;5.57;;;;;;;24.10;45.12;94716.84;6163676;28;103700;-53
2022/06/21 06:09:07;;;;;;;6.97;5.93;;;;;;;24.23;45.25;94718.50;6152488;28;103688;-54
2022/06/21 06:12:19;;;;;;;6.50;5.97;;;;;;;24.36;45.37;94709.41;6139506;28;103949;-53
2022/06/21 06:15:27;;;;;;;6.40;5.83;;;;;;;24.40;45.64;94707.66;6139717;28;103685;-53
2022/06/21 06:18:36;;;;;;;6.60;5.70;;;;;;;24.43;45.50;94701.63;6134841;28;104341;-53
2022/06/21 06:21:44;;;;;;;8.33;6.33;;;;;;;24.44;45.75;94711.22;6136561;28;105336;-53
2022/06/21 06:24:54;;;;;;;7.10;5.83;;;;;;;24.53;45.34;94719.19;6139549;28;103910;-53
2022/06/21 06:28:05;;;;;;;6.00;5.50;;;;;;;24.60;45.22;94716.75;6139321;28;103806;-54
2022/06/21 06:31:16;;;;;;;5.80;5.20;;;;;;;24.64;45.17;94714.19;6128906;28;103622;-54
2022/06/21 06:34:22;;;;;;;6.00;5.40;;;;;;;24.68;44.78;94723.13;6138870;28;103805;-53
2022/06/21 06:37:31;;;;;;;6.53;5.57;;;;;;;24.70;44.62;94718.25;6138994;28;103704;-54
2022/06/21 06:40:38;;;;;;;8.10;5.80;;;;;;;24.71;44.60;94717.16;6138195;28;102960;-54
2022/06/21 06:43:48;;;;;;;8.60;5.30;;;;;;;24.75;44.63;94713.47;6130729;28;104368;-48
2022/06/21 06:46:52;;;;;;;6.70;5.70;;;;;;;24.85;44.30;94714.94;6138968;28;103759;-49
2022/06/21 06:50:00;;;;;;;6.43;5.87;;;;;;;24.94;44.57;94721.00;6138697;28;103921;-51
2022/06/21 06:53:08;;;;;;;6.53;5.60;;;;;;;25.00;44.30;94710.84;6127869;28;103724;-50
2022/06/21 06:56:16;;;;;;;7.23;5.90;;;;;;;25.04;44.28;94715.22;6138470;28;103555;-51
2022/06/21 06:59:25;;;;;;;6.87;6.17;;;;;;;25.08;44.25;94704.63;6138990;28;104975;-51
2022/06/21 07:02:33;;;;;;;6.20;5.60;;;;;;;25.11;44.23;94703.16;6138548;28;103821;-51
2022/06/21 07:05:41;;;;;;;7.03;6.10;;;;;;;25.19;44.26;94707.63;6128410;28;103632;-51
2022/06/21 07:08:51;;;;;;;7.00;6.03;;;;;;;25.22;43.82;94705.09;6138611;28;103854;-52
2022/06/21 07:12:09;;;;;;;7.73;6.07;;;;;;;25.23;44.09;94701.28;6159456;28;105184;-51
2022/06/21 07:15:15;;;;;;;6.07;5.50;;;;;;;25.29;44.23;94699.94;6157658;28;104819;-49
2022/06/21 07:18:27;;;;;;;6.90;6.20;;;;;;;25.34;43.96;94691.69;6157357;28;103704;-50
2022/06/21 07:21:40;;;;;;;6.67;5.97;;;;;;;25.36;44.32;94699.41;6162102;28;103691;-50
2022/06/21 07:24:47;;;;;;;8.67;5.93;;;;;;;25.37;43.84;94693.75;6162584;28;103740;-50
2022/06/21 07:27:55;;;;;;;7.37;6.63;;;;;;;25.42;43.88;94691.94;6151103;28;103924;-50
2022/06/21 07:31:04;;;;;;;7.23;6.30;;;;;;;25.45;43.82;94693.94;6162787;28;104553;-50
2022/06/21 07:34:11;;;;;;;7.90;6.60;;;;;;;25.47;43.66;94702.44;6162529;28;104809;-51
2022/06/21 07:37:19;;;;;;;7.20;6.53;;;;;;;25.48;43.94;94704.00;6162133;28;103830;-50
2022/06/21 07:40:27;;;;;;;6.77;6.10;;;;;;;25.53;43.98;94701.06;6151606;28;103521;-50
2022/06/21 07:43:38;;;;;;;8.07;7.47;;;;;;;25.53;44.04;94701.84;6161783;28;104799;-50
2022/06/21 07:46:47;;;;;;;7.40;6.80;;;;;;;25.57;43.59;94702.00;6161926;28;103844;-50
2022/06/21 07:49:54;;;;;;;7.67;6.97;;;;;;;25.57;43.78;94705.44;6151613;28;103770;-51
2022/06/21 07:53:05;;;;;;;7.80;7.20;;;;;;;25.61;43.52;94708.22;6162073;28;103833;-69
2022/06/21 07:56:16;;;;;;;6.87;6.47;;;;;;;25.62;43.53;94707.91;6161668;28;103868;-50
2022/06/21 07:59:22;;;;;;;7.80;7.10;;;;;;;25.62;43.42;94713.25;6162105;28;105043;-50
2022/06/21 08:09:25;;;;;;;7.83;6.90;;;;;;;25.67;43.39;94721.06;6162247;28;104678;-49
2022/06/21 08:12:29;;;;;;;7.73;7.07;;;;;;;25.70;43.29;94722.28;6151902;28;103533;-51
2022/06/21 08:15:38;;;;;;;7.20;6.60;;;;;;;25.69;43.27;94718.81;6160392;28;103884;-51
2022/06/21 08:18:48;;;;;;;7.03;6.43;;;;;;;25.69;43.62;94718.81;6161476;28;103959;-51
2022/06/21 08:21:56;;;;;;;6.30;5.90;;;;;;;25.71;43.45;94720.38;6161083;28;104478;-51
2022/06/21 08:25:08;;;;;;;8.30;6.77;;;;;;;25.74;43.50;94711.69;6149623;28;103681;-50
2022/06/21 08:28:18;;;;;;;6.80;6.30;;;;;;;25.75;43.45;94718.63;6161259;28;103819;-51
2022/06/21 08:31:27;;;;;;;6.57;6.07;;;;;;;25.77;43.09;94721.72;6161223;28;103948;-50
2022/06/21 08:34:36;;;;;;;6.60;6.00;;;;;;;25.76;43.56;94717.50;6155440;28;103660;-50
2022/06/21 08:37:46;;;;;;;6.63;6.03;;;;;;;25.73;42.96;94723.53;6155613;28;103956;-50
2022/06/21 08:49:04;;;;;;;8.30;7.00;;;;;;;25.69;43.61;94713.47;6077462;28;103625;-50
2022/06/21 08:52:25;;;;;;;7.77;7.00;;;;;;;25.68;43.81;94701.19;6161357;28;103616;-51
2022/06/21 08:55:36;;;;;;;6.83;6.23;;;;;;;25.69;43.66;94702.75;6160662;28;103560;-52
2022/06/21 08:58:50;;;;;;;7.00;6.50;;;;;;;25.68;43.97;94708.44;6150565;28;103345;-51
2022/06/21 09:02:02;;;;;;;10.07;6.57;;;;;;;25.69;43.85;94697.38;6160696;28;103714;-51
2022/06/21 09:05:24;;;;;;;7.27;6.67;;;;;;;25.72;44.06;94695.94;6160761;28;103908;-51
2022/06/21 09:08:46;;;;;;;7.70;7.10;;;;;;;25.71;44.00;94693.56;6156225;28;104673;-50
2022/06/21 09:12:02;;;;;;;7.87;7.13;;;;;;;25.69;44.40;94686.66;6137082;28;103629;-51
2022/06/21 09:15:33;;;;;;;8.70;7.80;;;;;;;25.68;44.42;94678.97;6136401;28;103717;-50
2022/06/21 09:18:47;;;;;;;8.03;7.30;;;;;;;25.67;44.29;94685.44;6134989;28;105001;-52
2022/06/21 09:21:58;;;;;;;8.03;7.20;;;;;;;25.68;44.50;94687.00;6125141;28;105106;-51
2022/06/21 09:25:11;;;;;;;8.83;7.97;;;;;;;25.66;44.63;94681.97;6135611;28;103763;-50
2022/06/21 09:28:25;;;;;;;8.73;8.03;;;;;;;25.66;44.63;94681.19;6136148;28;103954;-50
2022/06/21 09:31:38;;;;;;;8.00;7.40;;;;;;;25.65;44.36;94679.63;6129811;28;103478;-49
2022/06/21 09:34:58;;;;;;;9.27;8.27;;;;;;;25.64;45.01;94684.22;6134669;28;103748;-51
2022/06/21 09:38:15;;;;;;;8.70;7.90;;;;;;;25.64;44.98;94689.56;6136540;28;103774;-50
2022/06/21 09:41:24;;;;;;;9.17;8.50;;;;;;;25.67;45.06;94680.84;6135999;28;103852;-50
2022/06/21 09:44:38;;;;;;;9.30;8.40;;;;;;;25.64;45.24;94686.91;6125115;28;103917;-53
2022/06/21 09:47:53;;;;;;;8.90;8.27;;;;;;;25.63;45.27;94671.16;6134949;28;103696;-52
2022/06/21 09:51:08;;;;;;;8.93;8.23;;;;;;;25.65;44.97;94669.69;6135891;28;104248;-51
2022/06/21 09:54:30;;;;;;;9.67;8.77;;;;;;;25.64;45.42;94662.78;6129186;28;103992;-50
2022/06/21 09:57:43;;;;;;;9.90;9.10;;;;;;;25.63;45.26;94661.22;6134458;28;103736;-51
2022/06/21 10:00:53;;;;;;;9.47;8.70;;;;;;;25.62;45.59;94665.00;6135120;28;104173;-51
2022/06/21 10:04:02;;;;;;;9.73;8.70;;;;;;;25.60;45.58;94664.56;6135155;28;103684;-50
2022/06/21 10:07:21;;;;;;;9.30;8.47;;;;;;;25.61;45.77;94665.34;6124572;28;104854;-51
2022/06/21 10:10:36;;;;;;;10.30;9.50;;;;;;;25.59;45.65;94671.06;6144820;28;104023;-50
2022/06/21 10:13:58;;;;;;;10.50;9.53;;;;;;;25.58;45.73;94664.13;6159922;28;104978;-50
2022/06/21 10:17:26;;;;;;;9.70;8.80;;;;;;;25.60;45.73;94661.13;6149486;28;103858;-50
2022/06/21 10:20:49;;;;;;;9.17;8.57;;;;;;;25.59;46.12;94667.59;6159631;28;104222;-50
2022/06/21 10:24:13;;;;;;;10.57;9.70;;;;;;;25.56;46.20;94655.66;6159286;28;103759;-51
2022/06/21 10:27:37;;;;;;;9.67;9.00;;;;;;;25.56;46.44;94663.69;6158369;28;103998;-50
2022/06/21 10:31:09;;;;;;;10.57;9.50;;;;;;;25.56;46.26;94661.03;6152178;28;103464;-51
2022/06/21 10:34:44;;;;;;;9.60;8.80;;;;;;;25.55;46.11;94664.81;6159307;28;103321;-51
2022/06/21 10:38:04;;;;;;;10.20;9.47;;;;;;;25.55;46.57;94670.19;6147084;28;103955;-52
2022/06/21 10:41:26;;;;;;;10.20;9.33;;;;;;;25.54;46.32;94663.25;6148676;28;103739;-51
2022/06/21 10:44:44;;;;;;;9.30;8.70;;;;;;;25.54;46.30;94670.47;6159677;28;103912;-51
2022/06/21 10:48:06;;;;;;;10.37;9.47;;;;;;;25.53;46.56;94671.59;6162770;28;103776;-51
2022/06/21 10:51:18;;;;;;;9.50;8.80;;;;;;;25.52;46.28;94665.47;6153769;28;105331;-51
2022/06/21 10:54:45;;;;;;;9.83;9.20;;;;;;;25.51;46.50;94679.97;6162643;28;103623;-51
2022/06/21 10:57:59;;;;;;;9.57;8.87;;;;;;;25.52;46.34;94676.19;6161013;28;104001;-51
2022/06/21 11:01:18;;;;;;;10.40;9.50;;;;;;;25.50;46.32;94675.75;6161765;28;103796;-51
2022/06/21 11:04:40;;;;;;;9.67;9.07;;;;;;;25.49;46.67;94662.69;6152683;28;103677;-51
2022/06/21 11:07:50;;;;;;;10.03;9.23;;;;;;;25.49;46.59;94676.88;6162699;28;103813;-50
2022/06/21 11:11:02;;;;;;;10.20;9.40;;;;;;;25.47;46.58;94673.75;6149349;28;104456;-52
2022/06/21 11:14:11;;;;;;;10.27;9.53;;;;;;;25.49;46.73;94679.53;6128386;28;103659;-51
2022/06/21 11:17:26;;;;;;;10.83;9.93;;;;;;;25.47;47.04;94667.59;6137722;28;103403;-52
2022/06/21 11:20:34;;;;;;;9.67;9.03;;;;;;;25.47;46.83;94671.06;6138360;28;103947;-51
2022/06/21 11:23:48;;;;;;;10.80;9.50;;;;;;;25.47;47.15;94673.75;6138099;28;103649;-51
2022/06/21 11:27:03;;;;;;;9.33;8.63;;;;;;;25.46;46.90;94672.19;6128001;28;104395;-52
2022/06/21 11:30:11;;;;;;;9.83;9.07;;;;;;;25.44;46.58;94684.34;6138133;28;103789;-52
2022/06/21 11:33:26;;;;;;;9.30;8.57;;;;;;;25.45;46.79;94670.63;6138243;28;103566;-51
2022/06/21 11:36:37;;;;;;;9.60;8.80;;;;;;;25.44;46.94;94673.63;6129668;28;104739;-50
2022/06/21 11:39:47;;;;;;;9.60;8.90;;;;;;;25.43;46.80;94656.78;6137511;28;104930;-51
2022/06/21 11:42:53;;;;;;;10.60;9.60;;;;;;;25.43;47.13;94667.50;6138050;28;103693;-52
2022/06/21 11:46:07;;;;;;;10.07;9.37;;;;;;;25.41;47.15;94664.38;6137417;28;103827;-52
2022/06/21 11:49:36;;;;;;;10.60;9.70;;;;;;;25.41;47.11;94661.69;6127766;28;104003;-51
2022/06/21 11:53:15;;;;;;;10.30;9.60;;;;;;;25.41;47.41;94664.38;6137303;28;103643;-51
2022/06/21 11:56:23;;;;;;;9.50;8.70;;;;;;;25.42;47.53;94663.25;6138161;28;103867;-51
2022/06/21 11:59:34;;;;;;;10.80;10.07;;;;;;;25.41;47.53;94656.34;6127749;28;104630;-51
2022/06/21 12:02:45;;;;;;;10.07;9.17;;;;;;;25.41;47.40;94660.91;6137812;28;104021;-51
2022/06/21 12:05:54;;;;;;;10.43;9.53;;;;;;;25.41;47.31;94652.88;6137162;28;103661;-52
2022/06/21 12:09:25;;;;;;;10.43;9.63;;;;;;;25.41;47.38;94652.88;6138226;28;106578;-52
2022/06/21 12:12:39;;;;;;;10.70;9.63;;;;;;;25.40;47.57;94649.41;6152360;28;104056;-51
2022/06/21 12:15:58;;;;;;;10.93;10.03;;;;;;;25.38;47.17;94651.66;6161544;28;104742;-51
2022/06/21 12:19:05;;;;;;;10.60;9.90;;;;;;;25.38;47.47;94660.47;6161334;28;103841;-50
2022/06/21 12:22:23;;;;;;;10.63;9.93;;;;;;;25.39;47.74;94650.53;6150863;28;104839;-51
2022/06/21 12:25:29;;;;;;;9.40;8.80;;;;;;;25.40;47.55;94657.47;6162256;28;104805;-51
2022/06/21 12:28:37;;;;;;;10.90;10.10;;;;;;;25.37;47.52;94650.88;6162267;28;103703;-50
2022/06/21 12:31:49;;;;;;;9.67;8.90;;;;;;;25.39;47.88;94653.22;6161799;28;103457;-51
2022/06/21 12:35:02;;;;;;;11.17;10.27;;;;;;;25.37;47.69;94634.81;6151894;28;103636;-50
2022/06/21 12:38:08;;;;;;;10.40;9.53;;;;;;;25.39;47.78;94645.19;6160276;28;103835;-51
2022/06/21 12:41:22;;;;;;;10.00;9.30;;;;;;;25.39;48.02;94634.47;6161426;28;103861;-51
2022/06/21 12:44:38;;;;;;;10.57;9.73;;;;;;;25.38;47.81;94633.69;6155320;28;103639;-50
2022/06/21 12:47:56;;;;;;;10.73;9.93;;;;;;;25.37;47.96;94624.09;6160470;28;103808;-50
2022/06/21 12:51:12;;;;;;;9.83;9.23;;;;;;;25.38;48.03;94625.66;6161279;28;105035;-51
2022/06/21 12:54:50;;;;;;;10.60;9.80;;;;;;;25.38;48.17;94632.91;6161177;28;104598;-51
2022/06/21 12:58:07;;;;;;;10.57;9.77;;;;;;;25.37;48.07;94634.00;6118190;28;103433;-51
2022/06/21 13:01:18;;;;;;;9.70;9.10;;;;;;;25.33;48.03;94617.78;6160695;28;103674;-52
2022/06/21 13:04:52;;;;;;;10.50;9.77;;;;;;;25.39;47.94;94637.16;6160670;28;103846;-51
2022/06/21 13:08:29;;;;;;;10.50;9.80;;;;;;;25.38;47.88;94628.34;6148776;28;103874;-51
2022/06/21 13:11:53;;;;;;;9.97;9.17;;;;;;;25.39;47.99;94629.09;6141050;28;103624;-52
2022/06/21 13:15:16;;;;;;;10.10;9.40;;;;;;;25.38;47.99;94627.56;6134066;28;103715;-51
2022/06/21 13:18:50;;;;;;;11.23;10.43;;;;;;;25.38;48.13;94624.88;6131888;28;103933;-50
2022/06/21 13:22:21;;;;;;;9.90;9.20;;;;;;;25.38;48.33;94622.19;6135236;28;103681;-52
2022/06/21 13:25:43;;;;;;;10.70;10.00;;;;;;;25.37;47.91;94610.69;6136941;28;103989;-51
2022/06/21 13:29:00;;;;;;;10.73;9.93;;;;;;;25.38;48.20;94616.84;6135485;28;104321;-51
2022/06/21 13:32:09;;;;;;;10.30;9.60;;;;;;;25.37;48.16;94605.34;6125791;28;104709;-51
2022/06/21 13:35:20;;;;;;;10.30;9.60;;;;;;;25.36;48.34;94613.69;6136893;28;103607;-51
2022/06/21 13:38:29;;;;;;;11.00;9.83;;;;;;;25.36;47.89;94616.38;6135890;28;104297;-51
2022/06/21 13:45:12;;;;;;;9.83;9.10;;;;;;;25.39;48.09;94618.41;6134477;28;103705;-50
2022/06/21 13:48:25;;;;;;;10.83;9.90;;;;;;;25.38;48.45;94608.81;6135930;28;103960;-50
2022/06/21 13:51:43;;;;;;;10.93;10.00;;;;;;;25.42;48.49;94627.66;6135593;28;104086;-51
2022/06/21 13:54:54;;;;;;;10.67;9.73;;;;;;;25.40;48.13;94625.31;6125834;28;104511;-51
2022/06/21 13:58:07;;;;;;;11.17;10.13;;;;;;;25.43;48.45;94632.66;6135442;28;104619;-51
2022/06/21 14:01:20;;;;;;;10.83;10.13;;;;;;;25.43;48.41;94635.34;6135833;28;104947;-52
2022/06/21 14:04:33;;;;;;;11.90;10.93;;;;;;;25.45;48.65;94637.69;6125278;28;104353;-51
2022/06/21 14:07:44;;;;;;;10.70;9.70;;;;;;;25.44;48.48;94639.59;6135758;28;104005;-51
2022/06/21 14:10:52;;;;;;;11.40;10.50;;;;;;;25.45;48.70;94637.69;6148637;28;105048;-51
2022/06/21 14:14:01;;;;;;;10.20;9.50;;;;;;;25.46;48.38;94634.66;6159917;28;103776;-51
2022/06/21 14:17:16;;;;;;;11.27;10.47;;;;;;;25.50;48.59;94651.63;6149828;28;103754;-51
2022/06/21 14:20:30;;;;;;;10.60;9.90;;;;;;;25.49;48.75;94644.72;6163881;28;102753;-51
2022/06/21 14:23:42;;;;;;;10.70;9.80;;;;;;;25.48;48.38;94637.00;6164093;28;102988;-52
2022/06/21 14:26:55;;;;;;;11.60;10.70;;;;;;;25.45;48.66;94632.34;6155530;28;104321;-50
2022/06/21 14:30:04;;;;;;;11.20;10.40;;;;;;;25.47;48.57;94640.81;6162915;28;103757;-50
2022/06/21 14:33:34;;;;;;;10.90;10.10;;;;;;;25.47;48.37;94632.78;6163880;28;103455;-51
2022/06/21 14:36:47;;;;;;;11.50;10.60;;;;;;;25.46;48.55;94644.59;6163229;28;103934;-51
2022/06/21 14:39:58;;;;;;;11.70;10.80;;;;;;;25.46;48.74;94645.38;6152853;28;103136;-54
2022/06/21 14:43:13;;;;;;;11.50;10.63;;;;;;;25.44;49.05;94647.63;6163132;28;103322;-54
2022/06/21 14:46:24;;;;;;;12.00;11.10;;;;;;;25.46;49.16;94640.03;6163662;28;103680;-54
2022/06/21 14:49:35;;;;;;;12.00;11.00;;;;;;;25.48;49.78;94642.38;6147917;28;103978;-52
2022/06/21 14:53:06;;;;;;;12.20;11.17;;;;;;;25.48;49.99;94640.47;6162102;28;103848;-56
2022/06/21 14:56:23;;;;;;;12.57;11.53;;;;;;;25.47;50.15;94641.59;6163392;28;104433;-56
2022/06/21 14:59:58;;;;;;;12.43;11.33;;;;;;;25.46;50.22;94642.72;6162999;28;104733;-56
2022/06/21 15:03:15;;;;;;;12.30;11.40;;;;;;;25.48;50.72;94632.44;6153062;28;103668;-56
2022/06/21 15:06:25;;;;;;;12.00;11.20;;;;;;;25.49;50.21;94628.63;6163468;28;104402;-56
2022/06/21 15:09:43;;;;;;;12.47;11.50;;;;;;;25.51;50.69;94622.94;6163365;28;104616;-56